createdAt,value
2022-09-24T00:11:27.175Z,26.25
2022-09-24T00:26:29.003Z,26.268
2022-09-24T00:41:30.855Z,26.151
2022-09-24T00:56:32.705Z,26.216
2022-09-24T01:11:34.426Z,26.833
2022-09-24T01:26:36.278Z,26.616
2022-09-24T01:41:38.104Z,27.269
2022-09-24T01:56:39.930Z,27.328
2022-09-24T02:11:41.776Z,26.901
2022-09-24T02:26:43.578Z,26.813
2022-09-24T02:41:45.465Z,26.731
2022-09-24T02:56:47.286Z,26.582
2022-09-24T03:11:49.106Z,26.425
2022-09-24T03:26:50.923Z,26.781
2022-09-24T03:41:52.792Z,26.803
2022-09-24T03:56:54.647Z,27.374
2022-09-24T04:11:56.510Z,26.932
2022-09-24T04:26:58.333Z,26.438
2022-09-24T04:42:00.159Z,26.101
2022-09-24T04:57:02.013Z,27.079
2022-09-24T05:12:03.874Z,27.647
2022-09-24T05:27:05.692Z,27.081
2022-09-24T05:42:07.508Z,26.922
2022-09-24T05:57:09.362Z,26.47
2022-09-24T06:12:11.188Z,26.302
2022-09-24T06:27:13.024Z,26.869
2022-09-24T06:42:14.878Z,27.021
2022-09-24T06:57:16.706Z,27.316
2022-09-24T07:12:18.522Z,27.569
2022-09-24T07:27:20.369Z,28.066
2022-09-24T07:42:22.232Z,27.324
2022-09-24T07:57:24.064Z,27.718
2022-09-24T08:12:25.919Z,27.568
2022-09-24T08:27:27.741Z,27.644
2022-09-24T08:42:29.562Z,27.56
2022-09-24T08:57:31.390Z,27.548
2022-09-24T09:12:33.244Z,27.627
2022-09-24T09:27:35.083Z,27.524
2022-09-24T09:42:36.907Z,27.648
2022-09-24T09:57:38.762Z,27.523
2022-09-24T10:12:40.591Z,27.952
2022-09-24T10:27:42.442Z,27.541
2022-09-24T10:42:44.273Z,27.471
2022-09-24T10:57:46.029Z,27.436
2022-09-24T11:12:47.901Z,27.369
2022-09-24T11:27:49.758Z,27.366
2022-09-24T11:42:51.601Z,27.261
2022-09-24T11:57:53.528Z,27.246
2022-09-24T12:12:55.323Z,27.184
2022-09-24T12:27:57.157Z,27.375
2022-09-24T12:42:58.987Z,27.338
2022-09-24T12:58:00.867Z,27.264
2022-09-24T13:13:02.678Z,26.966
2022-09-24T13:28:04.497Z,26.929
2022-09-24T13:43:06.395Z,26.921
2022-09-24T13:58:08.288Z,26.869
2022-09-24T14:13:10.226Z,26.963
2022-09-24T14:28:12.144Z,26.978
2022-09-24T14:43:14.034Z,26.804
2022-09-24T14:58:15.901Z,26.88
2022-09-24T15:13:17.810Z,26.744
2022-09-24T15:28:19.743Z,27.06
2022-09-24T15:43:21.708Z,26.511
2022-09-24T15:58:23.635Z,26.411
2022-09-24T16:13:25.553Z,26.585
2022-09-24T16:28:27.467Z,26.397
2022-09-24T16:43:29.369Z,26.491
2022-09-24T16:58:31.328Z,26.313
2022-09-24T17:13:33.211Z,26.697
2022-09-24T17:28:35.101Z,26.657
2022-09-24T17:43:37.011Z,26.723
2022-09-24T17:58:38.945Z,26.927
2022-09-24T18:13:40.893Z,27.162
2022-09-24T18:28:42.835Z,27.035
2022-09-24T18:43:44.766Z,27.037
2022-09-24T18:58:46.722Z,26.55
2022-09-24T19:13:48.647Z,26.682
2022-09-24T19:28:50.579Z,26.706
2022-09-24T19:43:52.483Z,27.183
2022-09-24T19:58:54.379Z,27.503
2022-09-24T20:13:56.308Z,27.569
2022-09-24T20:28:58.198Z,27.548
2022-09-24T20:44:00.106Z,27.693
2022-09-24T20:59:02.038Z,28.029
2022-09-24T21:14:04.041Z,27.916
2022-09-24T21:29:06.084Z,28.295
2022-09-24T21:44:07.987Z,28.489
2022-09-24T21:59:09.904Z,29.196
2022-09-24T22:14:11.902Z,30.036
2022-09-24T22:29:13.852Z,30.598
2022-09-24T22:44:15.774Z,26.889
2022-09-24T22:59:17.658Z,24.499
2022-09-24T23:14:19.497Z,25.232
2022-09-24T23:29:21.406Z,23.258
2022-09-24T23:44:23.298Z,23.574
2022-09-24T23:59:25.210Z,24.288
